SWR77 OJAI-LTFM
Flight info
| Callsign | SWR77 |
|---|---|
| Flight time | N/A |
| Altitude | 40000 |
| Route | MUVIN1A MUVIN L53 TAPUZ W13 VELOX N71 DESPO DCT VOLBE DCT VESAR UL620 KFK UM855 SISPI SISPI1C |
| Aircraft | A333/H-SDE3GHIJ2J3J5M1RVWXY/LB2D1 |
Departure
| Time | 2026-05-07 03:54 |
|---|---|
| Airport | Queen Alia International Airport (OJAI) |
Arrival
| Time | N/A |
|---|---|
| Airport | İstanbul Airport (LTFM) |
| Time | Latitude | Longitude | Altitude | Speed | Heading |
|---|---|---|---|---|---|
| 2026-05-07 03:18 | 31.72105 | 35.98919 | 2413 ft | 0 kts | 352° |
| 2026-05-07 03:43 | 31.72087 | 35.98921 | 2413 ft | 4 kts | 357° |
| 2026-05-07 03:43 | 31.72060 | 35.98921 | 2413 ft | 4 kts | 6° |
| 2026-05-07 03:44 | 31.72033 | 35.98915 | 2413 ft | 4 kts | 16° |
| 2026-05-07 03:44 | 31.72008 | 35.98904 | 2413 ft | 4 kts | 30° |
| 2026-05-07 03:44 | 31.71988 | 35.98886 | 2412 ft | 4 kts | 57° |
| 2026-05-07 03:44 | 31.71981 | 35.98871 | 2413 ft | 0 kts | 82° |
| 2026-05-07 03:45 | 31.71982 | 35.98871 | 2413 ft | 0 kts | 82° |
| 2026-05-07 03:47 | 31.71983 | 35.98885 | 2413 ft | 8 kts | 82° |
| 2026-05-07 03:47 | 31.71999 | 35.99028 | 2413 ft | 19 kts | 82° |
| 2026-05-07 03:47 | 31.72018 | 35.99190 | 2413 ft | 20 kts | 80° |
| 2026-05-07 03:48 | 31.72054 | 35.99336 | 2413 ft | 15 kts | 81° |
| 2026-05-07 03:48 | 31.72042 | 35.99449 | 2413 ft | 15 kts | 139° |
| 2026-05-07 03:48 | 31.71946 | 35.99480 | 2413 ft | 15 kts | 173° |
| 2026-05-07 03:48 | 31.71859 | 35.99520 | 2413 ft | 14 kts | 118° |
| 2026-05-07 03:49 | 31.71860 | 35.99630 | 2413 ft | 14 kts | 81° |
| 2026-05-07 03:49 | 31.71875 | 35.99741 | 2413 ft | 14 kts | 82° |
| 2026-05-07 03:49 | 31.71889 | 35.99852 | 2413 ft | 14 kts | 81° |
| 2026-05-07 03:49 | 31.71905 | 35.99963 | 2413 ft | 14 kts | 80° |
| 2026-05-07 03:50 | 31.71924 | 36.00092 | 2413 ft | 17 kts | 81° |
| 2026-05-07 03:50 | 31.71943 | 36.00226 | 2413 ft | 17 kts | 81° |
| 2026-05-07 03:50 | 31.71966 | 36.00381 | 2413 ft | 25 kts | 81° |
| 2026-05-07 03:50 | 31.71996 | 36.00600 | 2413 ft | 28 kts | 81° |
| 2026-05-07 03:51 | 31.72026 | 36.00819 | 2413 ft | 27 kts | 81° |
| 2026-05-07 03:51 | 31.72055 | 36.01027 | 2413 ft | 26 kts | 79° |
| 2026-05-07 03:51 | 31.72084 | 36.01227 | 2413 ft | 21 kts | 81° |
| 2026-05-07 03:51 | 31.72107 | 36.01384 | 2413 ft | 19 kts | 80° |
| 2026-05-07 03:52 | 31.72126 | 36.01537 | 2413 ft | 19 kts | 82° |
| 2026-05-07 03:52 | 31.72146 | 36.01685 | 2413 ft | 16 kts | 81° |
| 2026-05-07 03:52 | 31.72143 | 36.01792 | 2413 ft | 13 kts | 137° |
| 2026-05-07 03:52 | 31.72062 | 36.01829 | 2413 ft | 13 kts | 170° |
| 2026-05-07 03:53 | 31.71996 | 36.01815 | 2413 ft | 4 kts | 222° |
| 2026-05-07 03:53 | 31.71983 | 36.01792 | 2413 ft | 4 kts | 245° |
| 2026-05-07 03:53 | 31.71968 | 36.01730 | 2413 ft | 22 kts | 257° |
| 2026-05-07 03:53 | 31.71904 | 36.01285 | 2413 ft | 86 kts | 260° |
| 2026-05-07 03:54 | 31.71771 | 36.00348 | 2413 ft | 145 kts | 260° |
| 2026-05-07 03:54 | 31.71589 | 35.99102 | 2907 ft | 157 kts | 260° |
| 2026-05-07 03:54 | 31.71382 | 35.97822 | 3614 ft | 162 kts | 259° |
| 2026-05-07 03:54 | 31.71178 | 35.96507 | 4325 ft | 168 kts | 261° |
| 2026-05-07 03:55 | 31.70995 | 35.95083 | 4802 ft | 189 kts | 261° |
| 2026-05-07 03:55 | 31.70755 | 35.93387 | 4945 ft | 233 kts | 261° |
| 2026-05-07 03:55 | 31.70529 | 35.91321 | 5230 ft | 269 kts | 265° |
| 2026-05-07 03:55 | 31.70368 | 35.89146 | 6408 ft | 269 kts | 265° |
| 2026-05-07 03:56 | 31.70205 | 35.86928 | 7419 ft | 276 kts | 265° |
| 2026-05-07 03:56 | 31.70038 | 35.84669 | 8481 ft | 280 kts | 264° |
| 2026-05-07 03:56 | 31.69869 | 35.82373 | 9555 ft | 283 kts | 264° |
| 2026-05-07 03:56 | 31.69699 | 35.80075 | 10714 ft | 281 kts | 263° |
| 2026-05-07 03:57 | 31.69529 | 35.77804 | 11928 ft | 277 kts | 263° |
| 2026-05-07 03:57 | 31.69414 | 35.75550 | 13061 ft | 278 kts | 272° |
| 2026-05-07 03:57 | 31.69891 | 35.73342 | 14048 ft | 283 kts | 293° |
| 2026-05-07 03:57 | 31.71077 | 35.71475 | 15007 ft | 293 kts | 315° |
| 2026-05-07 03:58 | 31.72744 | 35.70045 | 15944 ft | 299 kts | 320° |
| 2026-05-07 03:58 | 31.74445 | 35.68662 | 16827 ft | 303 kts | 321° |
| 2026-05-07 03:58 | 31.76203 | 35.67269 | 17739 ft | 306 kts | 320° |
| 2026-05-07 03:58 | 31.77796 | 35.65631 | 18595 ft | 303 kts | 306° |
| 2026-05-07 03:59 | 31.78967 | 35.63576 | 19315 ft | 307 kts | 292° |
| 2026-05-07 03:59 | 31.79724 | 35.61128 | 19441 ft | 333 kts | 285° |
| 2026-05-07 03:59 | 31.80474 | 35.58438 | 19526 ft | 360 kts | 285° |
| 2026-05-07 03:59 | 31.81260 | 35.55532 | 19623 ft | 385 kts | 285° |
| 2026-05-07 04:00 | 31.82059 | 35.52491 | 20380 ft | 389 kts | 285° |
| 2026-05-07 04:00 | 31.82902 | 35.49443 | 21201 ft | 395 kts | 287° |
| 2026-05-07 04:00 | 31.83832 | 35.46377 | 21936 ft | 400 kts | 288° |
| 2026-05-07 04:00 | 31.84774 | 35.43276 | 22673 ft | 405 kts | 288° |
| 2026-05-07 04:01 | 31.85726 | 35.40130 | 23291 ft | 411 kts | 288° |
| 2026-05-07 04:01 | 31.86671 | 35.36989 | 24011 ft | 415 kts | 288° |
| 2026-05-07 04:01 | 31.87651 | 35.33727 | 24664 ft | 420 kts | 287° |
| 2026-05-07 04:01 | 31.88630 | 35.30470 | 25307 ft | 424 kts | 287° |
| 2026-05-07 04:02 | 31.89615 | 35.27185 | 25925 ft | 428 kts | 287° |
| 2026-05-07 04:02 | 31.90603 | 35.23871 | 26524 ft | 432 kts | 287° |
| 2026-05-07 04:02 | 31.91598 | 35.20514 | 27105 ft | 436 kts | 287° |
| 2026-05-07 04:02 | 31.92597 | 35.17136 | 27673 ft | 439 kts | 287° |
| 2026-05-07 04:03 | 31.93607 | 35.13719 | 28177 ft | 444 kts | 287° |
| 2026-05-07 04:03 | 31.94627 | 35.10274 | 28729 ft | 447 kts | 287° |
| 2026-05-07 04:03 | 31.95654 | 35.06806 | 29243 ft | 451 kts | 287° |
| 2026-05-07 04:03 | 31.96691 | 35.03302 | 29747 ft | 454 kts | 287° |
| 2026-05-07 04:04 | 31.97731 | 34.99782 | 30207 ft | 457 kts | 287° |
| 2026-05-07 04:04 | 31.98775 | 34.96235 | 30774 ft | 457 kts | 287° |
| 2026-05-07 04:04 | 31.99462 | 34.93900 | 31241 ft | 455 kts | 287° |
| 2026-05-07 04:04 | 32.00496 | 34.90388 | 31980 ft | 450 kts | 287° |
| 2026-05-07 04:05 | 32.01442 | 34.86917 | 32850 ft | 442 kts | 282° |
| 2026-05-07 04:05 | 32.01921 | 34.83355 | 33408 ft | 439 kts | 272° |
| 2026-05-07 04:05 | 32.02072 | 34.79724 | 33973 ft | 438 kts | 271° |
| 2026-05-07 04:05 | 32.02194 | 34.76144 | 34529 ft | 436 kts | 271° |
| 2026-05-07 04:06 | 32.02312 | 34.72574 | 35080 ft | 435 kts | 271° |
| 2026-05-07 04:06 | 32.02425 | 34.69016 | 35578 ft | 434 kts | 271° |
| 2026-05-07 04:06 | 32.02536 | 34.65459 | 36067 ft | 434 kts | 270° |
| 2026-05-07 04:06 | 32.02913 | 34.61935 | 36542 ft | 436 kts | 283° |
| 2026-05-07 04:07 | 32.04127 | 34.58694 | 36958 ft | 443 kts | 299° |
| 2026-05-07 04:07 | 32.06142 | 34.55923 | 37371 ft | 451 kts | 314° |
| 2026-05-07 04:07 | 32.08654 | 34.53667 | 37746 ft | 458 kts | 323° |
| 2026-05-07 04:07 | 32.11517 | 34.51961 | 38115 ft | 465 kts | 334° |
| 2026-05-07 04:08 | 32.14649 | 34.50905 | 38496 ft | 472 kts | 345° |
| 2026-05-07 04:08 | 32.17928 | 34.50408 | 38878 ft | 475 kts | 348° |
| 2026-05-07 04:08 | 32.21213 | 34.49953 | 39186 ft | 476 kts | 348° |
| 2026-05-07 04:08 | 32.24504 | 34.49496 | 39519 ft | 476 kts | 348° |
| 2026-05-07 04:09 | 32.27779 | 34.48979 | 39807 ft | 473 kts | 343° |
| 2026-05-07 04:09 | 32.30942 | 34.47835 | 40033 ft | 467 kts | 332° |
| 2026-05-07 04:09 | 32.33768 | 34.46001 | 40109 ft | 462 kts | 319° |
| 2026-05-07 04:10 | 32.38511 | 34.40939 | 40133 ft | 460 kts | 311° |
| 2026-05-07 04:10 | 32.43113 | 34.35716 | 40130 ft | 456 kts | 311° |
| 2026-05-07 04:11 | 32.47627 | 34.30557 | 40128 ft | 451 kts | 311° |
| 2026-05-07 04:11 | 32.52328 | 34.25663 | 40125 ft | 454 kts | 322° |
| 2026-05-07 04:11 | 32.55164 | 34.23960 | 40126 ft | 461 kts | 334° |
| 2026-05-07 04:12 | 32.58282 | 34.22979 | 40126 ft | 470 kts | 346° |
| 2026-05-07 04:12 | 32.64823 | 34.22122 | 40128 ft | 474 kts | 349° |
| 2026-05-07 04:13 | 32.71396 | 34.21300 | 40126 ft | 476 kts | 349° |
| 2026-05-07 04:13 | 32.78006 | 34.20489 | 40125 ft | 478 kts | 349° |
| 2026-05-07 04:14 | 32.84629 | 34.19691 | 40109 ft | 478 kts | 349° |
| 2026-05-07 04:14 | 32.91228 | 34.18907 | 40106 ft | 475 kts | 349° |
| 2026-05-07 04:15 | 32.97800 | 34.18132 | 40106 ft | 473 kts | 349° |
| 2026-05-07 04:15 | 33.04339 | 34.17366 | 40125 ft | 471 kts | 349° |
| 2026-05-07 04:16 | 33.10865 | 34.16604 | 40132 ft | 471 kts | 349° |
| 2026-05-07 04:16 | 33.17357 | 34.15848 | 40134 ft | 472 kts | 349° |
| 2026-05-07 04:17 | 33.23936 | 34.15084 | 40135 ft | 472 kts | 349° |
| 2026-05-07 04:17 | 33.30427 | 34.14331 | 40136 ft | 470 kts | 349° |
| 2026-05-07 04:18 | 33.36974 | 34.13572 | 40137 ft | 468 kts | 349° |
| 2026-05-07 04:18 | 33.43447 | 34.12820 | 40139 ft | 467 kts | 349° |
| 2026-05-07 04:19 | 33.49917 | 34.12070 | 40140 ft | 466 kts | 349° |
| 2026-05-07 04:19 | 33.56382 | 34.11319 | 40141 ft | 466 kts | 349° |
| 2026-05-07 04:20 | 33.62835 | 34.10569 | 40142 ft | 466 kts | 349° |
| 2026-05-07 04:20 | 33.69250 | 34.09823 | 40142 ft | 465 kts | 349° |
| 2026-05-07 04:21 | 33.78949 | 34.08966 | 40141 ft | 470 kts | 357° |
| 2026-05-07 04:21 | 33.85430 | 34.10514 | 40147 ft | 482 kts | 15° |
| 2026-05-07 04:22 | 33.91724 | 34.13354 | 40151 ft | 483 kts | 16° |
| 2026-05-07 04:22 | 33.98017 | 34.16230 | 40150 ft | 484 kts | 16° |
| 2026-05-07 04:23 | 34.04314 | 34.19130 | 40149 ft | 484 kts | 16° |
| 2026-05-07 04:23 | 34.10603 | 34.22046 | 40147 ft | 484 kts | 16° |
| 2026-05-07 04:24 | 34.16939 | 34.24999 | 40146 ft | 484 kts | 16° |
| 2026-05-07 04:24 | 34.23216 | 34.27936 | 40145 ft | 484 kts | 16° |
| 2026-05-07 04:25 | 34.29456 | 34.30867 | 40143 ft | 484 kts | 16° |
| 2026-05-07 04:25 | 34.35739 | 34.33827 | 40142 ft | 484 kts | 16° |
| 2026-05-07 04:26 | 34.42074 | 34.36531 | 40138 ft | 478 kts | 7° |
| 2026-05-07 04:26 | 34.45343 | 34.37022 | 40139 ft | 470 kts | 356° |
| 2026-05-07 04:26 | 34.48569 | 34.36778 | 40139 ft | 461 kts | 345° |
| 2026-05-07 04:27 | 34.54877 | 34.35367 | 40136 ft | 461 kts | 343° |
| 2026-05-07 04:27 | 34.61183 | 34.33911 | 40130 ft | 462 kts | 343° |
| 2026-05-07 04:28 | 34.67491 | 34.32433 | 40127 ft | 461 kts | 343° |
| 2026-05-07 04:28 | 34.73791 | 34.30941 | 40125 ft | 460 kts | 343° |
| 2026-05-07 04:29 | 34.80068 | 34.29439 | 40123 ft | 459 kts | 343° |
| 2026-05-07 04:29 | 34.86333 | 34.27918 | 40123 ft | 459 kts | 343° |
| 2026-05-07 04:30 | 34.92599 | 34.26388 | 40128 ft | 459 kts | 343° |
| 2026-05-07 04:30 | 34.98869 | 34.24851 | 40129 ft | 459 kts | 343° |
| 2026-05-07 04:31 | 35.05135 | 34.23310 | 40129 ft | 459 kts | 343° |
| 2026-05-07 04:31 | 35.11400 | 34.21763 | 40129 ft | 459 kts | 343° |
| 2026-05-07 04:32 | 35.17655 | 34.20215 | 40126 ft | 458 kts | 343° |
| 2026-05-07 04:32 | 35.23912 | 34.18663 | 40125 ft | 457 kts | 343° |
| 2026-05-07 04:33 | 35.30151 | 34.17113 | 40135 ft | 457 kts | 343° |
| 2026-05-07 04:33 | 35.36340 | 34.15571 | 40145 ft | 456 kts | 343° |
| 2026-05-07 04:34 | 35.42567 | 34.14016 | 40146 ft | 456 kts | 343° |
| 2026-05-07 04:34 | 35.48794 | 34.12459 | 40147 ft | 456 kts | 343° |
| 2026-05-07 04:35 | 35.55021 | 34.10898 | 40145 ft | 456 kts | 343° |
| 2026-05-07 04:35 | 35.61236 | 34.09338 | 40143 ft | 455 kts | 343° |
| 2026-05-07 04:36 | 35.67447 | 34.07777 | 40143 ft | 455 kts | 343° |
| 2026-05-07 04:36 | 35.73649 | 34.06215 | 40143 ft | 455 kts | 343° |
| 2026-05-07 04:37 | 35.79841 | 34.04653 | 40144 ft | 454 kts | 343° |
| 2026-05-07 04:37 | 35.86037 | 34.03082 | 40144 ft | 454 kts | 342° |
| 2026-05-07 04:38 | 35.91972 | 34.00663 | 40144 ft | 446 kts | 331° |
| 2026-05-07 04:38 | 35.96464 | 33.97647 | 40146 ft | 442 kts | 325° |
| 2026-05-07 04:39 | 36.01740 | 33.93745 | 40145 ft | 442 kts | 324° |
| 2026-05-07 04:39 | 36.07040 | 33.89799 | 40146 ft | 442 kts | 324° |
| 2026-05-07 04:40 | 36.12271 | 33.85885 | 40146 ft | 442 kts | 324° |
| 2026-05-07 04:40 | 36.17521 | 33.81940 | 40147 ft | 441 kts | 324° |
| 2026-05-07 04:41 | 36.22767 | 33.77986 | 40148 ft | 441 kts | 324° |
| 2026-05-07 04:41 | 36.27997 | 33.74022 | 40148 ft | 440 kts | 324° |
| 2026-05-07 04:42 | 36.33219 | 33.70045 | 40149 ft | 440 kts | 324° |
| 2026-05-07 04:42 | 36.38435 | 33.66069 | 40151 ft | 440 kts | 324° |
| 2026-05-07 04:43 | 36.39810 | 33.65020 | 40151 ft | 440 kts | 324° |
| 2026-05-07 05:25 | 36.41202 | 33.63957 | 40151 ft | 440 kts | 324° |
| 2026-05-07 05:25 | 36.46415 | 33.59974 | 40151 ft | 440 kts | 324° |
| 2026-05-07 05:26 | 36.51617 | 33.55995 | 40152 ft | 439 kts | 324° |
| 2026-05-07 05:26 | 36.56817 | 33.52010 | 40153 ft | 438 kts | 324° |
| 2026-05-07 05:27 | 36.62002 | 33.48031 | 40155 ft | 438 kts | 324° |
| 2026-05-07 05:27 | 36.67181 | 33.44050 | 40157 ft | 438 kts | 324° |
| 2026-05-07 05:28 | 36.72368 | 33.40056 | 40158 ft | 437 kts | 325° |
| 2026-05-07 05:28 | 36.77541 | 33.36068 | 40160 ft | 437 kts | 325° |
| 2026-05-07 05:29 | 36.82720 | 33.32069 | 40162 ft | 437 kts | 325° |
| 2026-05-07 05:29 | 36.87744 | 33.27830 | 40163 ft | 433 kts | 315° |
| 2026-05-07 05:30 | 36.91916 | 33.22452 | 40166 ft | 431 kts | 311° |
| 2026-05-07 05:30 | 36.95988 | 33.16962 | 40168 ft | 430 kts | 310° |
| 2026-05-07 05:31 | 37.00039 | 33.11447 | 40173 ft | 430 kts | 310° |
| 2026-05-07 05:31 | 37.04052 | 33.05964 | 40183 ft | 430 kts | 310° |
| 2026-05-07 05:32 | 37.08091 | 33.00429 | 40185 ft | 430 kts | 310° |
| 2026-05-07 05:32 | 37.12118 | 32.94895 | 40185 ft | 430 kts | 310° |
| 2026-05-07 05:33 | 37.16143 | 32.89350 | 40186 ft | 429 kts | 310° |
| 2026-05-07 05:33 | 37.20155 | 32.83811 | 40187 ft | 429 kts | 310° |
| 2026-05-07 05:34 | 37.24166 | 32.78262 | 40188 ft | 429 kts | 310° |
| 2026-05-07 05:34 | 37.28178 | 32.72704 | 40189 ft | 430 kts | 311° |
| 2026-05-07 05:35 | 37.32187 | 32.67138 | 40190 ft | 429 kts | 311° |
| 2026-05-07 05:35 | 37.36169 | 32.61600 | 40191 ft | 429 kts | 311° |
| 2026-05-07 05:36 | 37.40164 | 32.56034 | 40191 ft | 428 kts | 311° |
| 2026-05-07 05:36 | 37.44153 | 32.50467 | 40192 ft | 427 kts | 311° |
| 2026-05-07 05:37 | 37.48127 | 32.44910 | 40193 ft | 426 kts | 311° |
| 2026-05-07 05:37 | 37.52093 | 32.39356 | 40194 ft | 426 kts | 311° |
| 2026-05-07 05:38 | 37.56061 | 32.33789 | 40195 ft | 426 kts | 311° |
| 2026-05-07 05:38 | 37.60029 | 32.28213 | 40195 ft | 427 kts | 311° |
| 2026-05-07 05:39 | 37.64001 | 32.22621 | 40196 ft | 428 kts | 311° |
| 2026-05-07 05:39 | 37.67972 | 32.17022 | 40196 ft | 428 kts | 311° |
| 2026-05-07 05:40 | 37.71906 | 32.11463 | 40195 ft | 426 kts | 311° |
| 2026-05-07 05:40 | 37.75854 | 32.05875 | 40195 ft | 425 kts | 311° |
| 2026-05-07 05:41 | 37.79814 | 32.00261 | 40196 ft | 425 kts | 311° |
| 2026-05-07 05:41 | 37.83750 | 31.94670 | 40196 ft | 425 kts | 311° |
| 2026-05-07 05:42 | 37.87688 | 31.89068 | 40196 ft | 426 kts | 311° |
| 2026-05-07 05:42 | 37.91628 | 31.83453 | 40182 ft | 426 kts | 311° |
| 2026-05-07 05:43 | 37.95563 | 31.77835 | 40190 ft | 426 kts | 311° |
| 2026-05-07 05:43 | 37.99491 | 31.72217 | 40186 ft | 425 kts | 311° |
| 2026-05-07 05:44 | 38.03385 | 31.66638 | 40182 ft | 425 kts | 311° |
| 2026-05-07 05:44 | 38.07329 | 31.60976 | 40180 ft | 425 kts | 311° |
| 2026-05-07 05:45 | 38.11046 | 31.55132 | 40179 ft | 425 kts | 307° |
| 2026-05-07 05:45 | 38.14901 | 31.49480 | 40176 ft | 425 kts | 311° |
| 2026-05-07 05:46 | 38.18851 | 31.43860 | 40174 ft | 426 kts | 311° |
| 2026-05-07 05:46 | 38.22796 | 31.38251 | 40171 ft | 426 kts | 311° |
| 2026-05-07 05:47 | 38.26750 | 31.32626 | 40166 ft | 426 kts | 311° |
| 2026-05-07 05:47 | 38.30702 | 31.27000 | 40159 ft | 427 kts | 311° |
| 2026-05-07 05:48 | 38.34659 | 31.21361 | 40156 ft | 427 kts | 311° |
| 2026-05-07 05:48 | 38.38608 | 31.15725 | 40152 ft | 426 kts | 311° |
| 2026-05-07 05:49 | 38.42551 | 31.10088 | 40148 ft | 426 kts | 311° |
| 2026-05-07 05:49 | 38.46503 | 31.04430 | 40143 ft | 426 kts | 311° |
| 2026-05-07 05:50 | 38.50417 | 30.98749 | 40013 ft | 428 kts | 311° |
| 2026-05-07 05:50 | 38.52373 | 30.95886 | 39764 ft | 426 kts | 311° |
| 2026-05-07 05:50 | 38.54306 | 30.93058 | 39512 ft | 420 kts | 311° |
| 2026-05-07 05:50 | 38.56212 | 30.90270 | 39259 ft | 412 kts | 311° |
| 2026-05-07 05:51 | 38.58083 | 30.87532 | 39006 ft | 405 kts | 311° |
| 2026-05-07 05:51 | 38.59924 | 30.84837 | 38752 ft | 398 kts | 311° |
| 2026-05-07 05:51 | 38.61707 | 30.82227 | 38503 ft | 392 kts | 311° |
| 2026-05-07 05:51 | 38.63489 | 30.79616 | 38250 ft | 387 kts | 311° |
| 2026-05-07 05:52 | 38.65256 | 30.77027 | 38000 ft | 385 kts | 311° |
| 2026-05-07 05:52 | 38.67017 | 30.74446 | 37750 ft | 384 kts | 311° |
| 2026-05-07 05:52 | 38.68777 | 30.71865 | 37500 ft | 385 kts | 312° |
| 2026-05-07 05:52 | 38.70543 | 30.69277 | 37252 ft | 386 kts | 312° |
| 2026-05-07 05:53 | 38.72311 | 30.66681 | 37003 ft | 387 kts | 312° |
| 2026-05-07 05:53 | 38.74089 | 30.64071 | 36753 ft | 388 kts | 312° |
| 2026-05-07 05:53 | 38.75862 | 30.61467 | 36504 ft | 389 kts | 312° |
| 2026-05-07 05:53 | 38.77677 | 30.58888 | 36254 ft | 388 kts | 315° |
| 2026-05-07 05:54 | 38.79648 | 30.56536 | 36005 ft | 388 kts | 320° |
| 2026-05-07 05:54 | 38.81771 | 30.54471 | 35758 ft | 387 kts | 326° |
| 2026-05-07 05:54 | 38.84069 | 30.52677 | 35508 ft | 387 kts | 331° |
| 2026-05-07 05:54 | 38.86456 | 30.51068 | 35258 ft | 386 kts | 332° |
| 2026-05-07 05:55 | 38.88843 | 30.49482 | 35008 ft | 386 kts | 332° |
| 2026-05-07 05:55 | 38.91232 | 30.47911 | 34759 ft | 386 kts | 332° |
| 2026-05-07 05:55 | 38.93628 | 30.46346 | 34508 ft | 385 kts | 332° |
| 2026-05-07 05:55 | 38.96015 | 30.44796 | 34259 ft | 385 kts | 332° |
| 2026-05-07 05:56 | 38.98407 | 30.43246 | 34009 ft | 385 kts | 333° |
| 2026-05-07 05:56 | 39.00792 | 30.41705 | 33760 ft | 384 kts | 333° |
| 2026-05-07 05:56 | 39.03191 | 30.40158 | 33509 ft | 385 kts | 333° |
| 2026-05-07 05:56 | 39.05588 | 30.38615 | 33259 ft | 385 kts | 333° |
| 2026-05-07 05:57 | 39.07989 | 30.37069 | 33009 ft | 386 kts | 333° |
| 2026-05-07 05:57 | 39.10391 | 30.35522 | 32760 ft | 387 kts | 333° |
| 2026-05-07 05:57 | 39.12807 | 30.33966 | 32510 ft | 389 kts | 333° |
| 2026-05-07 05:57 | 39.15229 | 30.32406 | 32261 ft | 389 kts | 333° |
| 2026-05-07 05:58 | 39.17656 | 30.30843 | 32011 ft | 390 kts | 333° |
| 2026-05-07 05:58 | 39.20085 | 30.29277 | 31761 ft | 390 kts | 333° |
| 2026-05-07 05:58 | 39.22517 | 30.27708 | 31511 ft | 391 kts | 333° |
| 2026-05-07 05:58 | 39.24952 | 30.26137 | 31261 ft | 391 kts | 333° |
| 2026-05-07 05:59 | 39.27390 | 30.24562 | 31011 ft | 392 kts | 333° |
| 2026-05-07 05:59 | 39.29831 | 30.22984 | 30760 ft | 393 kts | 333° |
| 2026-05-07 05:59 | 39.32278 | 30.21401 | 30511 ft | 394 kts | 333° |
| 2026-05-07 05:59 | 39.34737 | 30.19810 | 30260 ft | 394 kts | 333° |
| 2026-05-07 06:00 | 39.37197 | 30.18217 | 30010 ft | 395 kts | 333° |
| 2026-05-07 06:00 | 39.39657 | 30.16623 | 29759 ft | 396 kts | 333° |
| 2026-05-07 06:00 | 39.42122 | 30.15024 | 29509 ft | 397 kts | 333° |
| 2026-05-07 06:00 | 39.44590 | 30.13421 | 29259 ft | 395 kts | 333° |
| 2026-05-07 06:01 | 39.47056 | 30.11927 | 29006 ft | 388 kts | 336° |
| 2026-05-07 06:01 | 39.49499 | 30.10551 | 28753 ft | 380 kts | 336° |
| 2026-05-07 06:01 | 39.51905 | 30.09202 | 28501 ft | 374 kts | 336° |
| 2026-05-07 06:01 | 39.54289 | 30.07868 | 28282 ft | 371 kts | 336° |
| 2026-05-07 06:02 | 39.56646 | 30.06550 | 28209 ft | 367 kts | 336° |
| 2026-05-07 06:02 | 39.60544 | 30.04371 | 28188 ft | 368 kts | 336° |
| 2026-05-07 06:03 | 39.65278 | 30.01726 | 28187 ft | 373 kts | 336° |
| 2026-05-07 06:03 | 39.70059 | 29.99054 | 28186 ft | 375 kts | 336° |
| 2026-05-07 06:04 | 39.74840 | 29.96379 | 28185 ft | 373 kts | 336° |
| 2026-05-07 06:04 | 39.79601 | 29.93700 | 28173 ft | 372 kts | 336° |
| 2026-05-07 06:05 | 39.84360 | 29.91022 | 28176 ft | 372 kts | 336° |
| 2026-05-07 06:05 | 39.89192 | 29.88591 | 28181 ft | 373 kts | 343° |
| 2026-05-07 06:06 | 39.94308 | 29.87349 | 28179 ft | 376 kts | 353° |
| 2026-05-07 06:06 | 39.99550 | 29.87148 | 28177 ft | 377 kts | 356° |
| 2026-05-07 06:07 | 40.04783 | 29.87062 | 28175 ft | 376 kts | 357° |
| 2026-05-07 06:07 | 40.10020 | 29.87014 | 28173 ft | 376 kts | 357° |
| 2026-05-07 06:08 | 40.15260 | 29.86985 | 28171 ft | 376 kts | 357° |
| 2026-05-07 06:08 | 40.20498 | 29.86966 | 28170 ft | 377 kts | 357° |
| 2026-05-07 06:09 | 40.25742 | 29.86951 | 28171 ft | 377 kts | 357° |
| 2026-05-07 06:09 | 40.30986 | 29.86938 | 28081 ft | 379 kts | 357° |
| 2026-05-07 06:09 | 40.33649 | 29.86931 | 27601 ft | 381 kts | 357° |
| 2026-05-07 06:10 | 40.36287 | 29.86927 | 26974 ft | 381 kts | 358° |
| 2026-05-07 06:10 | 40.38910 | 29.87230 | 26470 ft | 380 kts | 7° |
| 2026-05-07 06:10 | 40.41484 | 29.88175 | 25816 ft | 384 kts | 18° |
| 2026-05-07 06:10 | 40.43813 | 29.89719 | 24890 ft | 378 kts | 28° |
| 2026-05-07 06:11 | 40.46053 | 29.91638 | 24053 ft | 386 kts | 30° |
| 2026-05-07 06:11 | 40.48260 | 29.93571 | 23887 ft | 374 kts | 30° |
| 2026-05-07 06:11 | 40.50441 | 29.95295 | 23803 ft | 357 kts | 21° |
| 2026-05-07 06:11 | 40.52728 | 29.96315 | 23721 ft | 339 kts | 9° |
| 2026-05-07 06:12 | 40.55036 | 29.96667 | 23319 ft | 333 kts | 360° |
| 2026-05-07 06:12 | 40.57350 | 29.96749 | 22915 ft | 331 kts | 359° |
| 2026-05-07 06:12 | 40.59647 | 29.96807 | 22446 ft | 330 kts | 359° |
| 2026-05-07 06:12 | 40.61928 | 29.96846 | 22037 ft | 327 kts | 359° |
| 2026-05-07 06:13 | 40.64213 | 29.96868 | 21599 ft | 326 kts | 358° |
| 2026-05-07 06:13 | 40.66464 | 29.96679 | 21083 ft | 326 kts | 351° |
| 2026-05-07 06:13 | 40.68666 | 29.96104 | 20746 ft | 320 kts | 344° |
| 2026-05-07 06:13 | 40.70794 | 29.95234 | 20293 ft | 319 kts | 341° |
| 2026-05-07 06:14 | 40.72893 | 29.94323 | 19839 ft | 318 kts | 341° |
| 2026-05-07 06:14 | 40.74994 | 29.93392 | 19453 ft | 316 kts | 340° |
| 2026-05-07 06:14 | 40.77076 | 29.92456 | 18936 ft | 317 kts | 340° |
| 2026-05-07 06:14 | 40.79141 | 29.91519 | 18607 ft | 312 kts | 340° |
| 2026-05-07 06:15 | 40.81198 | 29.90579 | 18187 ft | 311 kts | 340° |
| 2026-05-07 06:15 | 40.83230 | 29.89620 | 17766 ft | 309 kts | 335° |
| 2026-05-07 06:15 | 40.84984 | 29.88024 | 17339 ft | 307 kts | 315° |
| 2026-05-07 06:15 | 40.86143 | 29.85673 | 16925 ft | 308 kts | 293° |
| 2026-05-07 06:16 | 40.86532 | 29.82890 | 16489 ft | 311 kts | 275° |
| 2026-05-07 06:16 | 40.86602 | 29.80046 | 16067 ft | 310 kts | 274° |
| 2026-05-07 06:16 | 40.86639 | 29.77217 | 15668 ft | 308 kts | 273° |
| 2026-05-07 06:16 | 40.86644 | 29.74403 | 15288 ft | 306 kts | 272° |
| 2026-05-07 06:17 | 40.86638 | 29.71600 | 14950 ft | 302 kts | 272° |
| 2026-05-07 06:17 | 40.86623 | 29.68887 | 14864 ft | 289 kts | 272° |
| 2026-05-07 06:17 | 40.86604 | 29.66311 | 14770 ft | 281 kts | 272° |
| 2026-05-07 06:17 | 40.86540 | 29.63729 | 14612 ft | 281 kts | 269° |
| 2026-05-07 06:18 | 40.86286 | 29.61163 | 14361 ft | 282 kts | 262° |
| 2026-05-07 06:18 | 40.85836 | 29.58646 | 14054 ft | 281 kts | 259° |
| 2026-05-07 06:18 | 40.85365 | 29.56147 | 13757 ft | 278 kts | 259° |
| 2026-05-07 06:18 | 40.84889 | 29.53667 | 13556 ft | 273 kts | 259° |
| 2026-05-07 06:19 | 40.84461 | 29.51233 | 13382 ft | 273 kts | 263° |
| 2026-05-07 06:19 | 40.84295 | 29.49582 | 13267 ft | 272 kts | 268° |
| 2026-05-07 06:19 | 40.84190 | 29.47096 | 13092 ft | 271 kts | 271° |
| 2026-05-07 06:19 | 40.84140 | 29.44620 | 12917 ft | 270 kts | 271° |
| 2026-05-07 06:20 | 40.84096 | 29.42145 | 12743 ft | 269 kts | 272° |
| 2026-05-07 06:20 | 40.84056 | 29.39671 | 12570 ft | 269 kts | 272° |
| 2026-05-07 06:20 | 40.84017 | 29.37207 | 12397 ft | 268 kts | 272° |